createdAt,value
2023-05-26T00:16:05.413Z,15.87
2023-05-26T00:36:08.322Z,15.93
2023-05-26T00:56:11.347Z,15.86
2023-05-26T01:16:14.108Z,15.81
2023-05-26T01:36:17.295Z,15.54
2023-05-26T01:56:20.508Z,15.14
2023-05-26T02:16:24.302Z,14.36
2023-05-26T02:36:27.696Z,13.69
2023-05-26T02:56:31.193Z,13.55
2023-05-26T03:16:34.350Z,13.27
2023-05-26T03:36:41.416Z,13.85
2023-05-26T03:56:44.372Z,14.23
2023-05-26T04:16:47.571Z,15.07
2023-05-26T04:36:50.948Z,15.85
2023-05-26T04:56:53.776Z,16.41
2023-05-26T05:16:56.556Z,17.40
2023-05-26T05:36:59.498Z,18.02
2023-05-26T05:57:02.752Z,17.62
2023-05-26T06:17:05.749Z,18.23
2023-05-26T06:37:08.544Z,19.36
2023-05-26T06:57:11.270Z,21.19
2023-05-26T07:17:14.085Z,20.96
2023-05-26T07:37:16.830Z,21.04
2023-05-26T07:57:29.376Z,21.03
2023-05-26T08:17:33.306Z,20.28
2023-05-26T08:37:36.098Z,21.00
2023-05-26T08:57:38.780Z,21.31
2023-05-26T09:17:41.510Z,22.23
2023-05-26T09:37:44.214Z,23.20
2023-05-26T09:57:47.404Z,23.07
2023-05-26T10:17:50.351Z,21.89
2023-05-26T10:37:53.212Z,22.21
2023-05-26T10:57:55.891Z,22.76
2023-05-26T11:17:58.859Z,24.13
2023-05-26T11:38:03.979Z,22.76
2023-05-26T11:58:06.662Z,22.45
2023-05-26T12:18:11.471Z,22.63
2023-05-26T12:38:14.442Z,23.38
2023-05-26T12:58:17.371Z,24.38
2023-05-26T13:18:20.155Z,23.06
2023-05-26T13:38:22.848Z,22.46
2023-05-26T13:58:25.633Z,22.33
2023-05-26T14:18:28.780Z,23.12
2023-05-26T14:38:32.053Z,23.34
2023-05-26T14:58:34.730Z,23.50
2023-05-26T15:18:37.790Z,22.38
2023-05-26T15:38:40.944Z,22.43
2023-05-26T15:58:44.121Z,22.08
2023-05-26T16:18:47.325Z,22.33
2023-05-26T16:38:49.982Z,22.11
2023-05-26T16:58:52.820Z,21.37
2023-05-26T17:18:55.511Z,20.60
2023-05-26T17:38:58.444Z,20.36
2023-05-26T17:59:01.401Z,20.07
2023-05-26T18:19:04.306Z,19.02
2023-05-26T18:39:07.185Z,18.56
2023-05-26T18:59:10.131Z,18.01
2023-05-26T19:19:12.896Z,17.70
2023-05-26T19:39:15.634Z,17.50
2023-05-26T19:59:18.461Z,17.19
2023-05-26T20:19:23.658Z,16.80
2023-05-26T20:39:26.667Z,16.18
2023-05-26T20:59:30.176Z,15.47
2023-05-26T21:19:33.206Z,15.07
2023-05-26T21:39:36.049Z,14.52
2023-05-26T21:59:39.059Z,14.16
2023-05-26T22:19:41.822Z,13.73
2023-05-26T22:39:45.158Z,13.32
2023-05-26T22:59:48.106Z,13.08
2023-05-26T23:19:50.910Z,12.55
2023-05-26T23:39:53.781Z,12.30
2023-05-26T23:59:56.886Z,12.16
